sensor_id;sensor_type;location;lat;lon;timestamp;pressure;altitude;pressure_sealevel;temperature;humidity
40315;BME280;26021;45.640;11.302;2023-02-28T00:01:20;99286.09;;;3.71;69.13
40315;BME280;26021;45.640;11.302;2023-02-28T00:03:46;99287.47;;;3.54;69.37
40315;BME280;26021;45.640;11.302;2023-02-28T00:06:40;99284.56;;;3.68;70.95
40315;BME280;26021;45.640;11.302;2023-02-28T00:09:07;99274.44;;;3.85;70.21
40315;BME280;26021;45.640;11.302;2023-02-28T00:11:32;99283.94;;;3.87;68.87
40315;BME280;26021;45.640;11.302;2023-02-28T00:13:58;99281.28;;;3.87;69.15
40315;BME280;26021;45.640;11.302;2023-02-28T00:16:23;99287.91;;;3.70;69.88
40315;BME280;26021;45.640;11.302;2023-02-28T00:18:49;99290.16;;;3.97;68.73
40315;BME280;26021;45.640;11.302;2023-02-28T00:21:16;99285.13;;;3.94;68.96
40315;BME280;26021;45.640;11.302;2023-02-28T00:23:42;99294.31;;;3.79;68.46
40315;BME280;26021;45.640;11.302;2023-02-28T00:26:07;99295.38;;;3.88;69.71
40315;BME280;26021;45.640;11.302;2023-02-28T00:28:34;99224.63;;;3.35;69.00
40315;BME280;26021;45.640;11.302;2023-02-28T00:30:59;99289.34;;;3.86;67.23
40315;BME280;26021;45.640;11.302;2023-02-28T00:33:25;99301.16;;;3.70;68.65
40315;BME280;26021;45.640;11.302;2023-02-28T00:35:51;99305.38;;;3.50;68.80
40315;BME280;26021;45.640;11.302;2023-02-28T00:38:16;99271.59;;;3.32;69.32
40315;BME280;26021;45.640;11.302;2023-02-28T00:40:42;99306.31;;;3.61;68.61
40315;BME280;26021;45.640;11.302;2023-02-28T00:43:08;99292.03;;;3.74;68.38
40315;BME280;26021;45.640;11.302;2023-02-28T00:45:33;99298.88;;;3.77;68.59
40315;BME280;26021;45.640;11.302;2023-02-28T00:47:58;99295.38;;;3.76;66.87
40315;BME280;26021;45.640;11.302;2023-02-28T00:50:24;99301.38;;;3.67;67.25
40315;BME280;26021;45.640;11.302;2023-02-28T00:52:49;99245.78;;;3.35;68.13
40315;BME280;26021;45.640;11.302;2023-02-28T00:55:15;99306.44;;;3.70;68.28
40315;BME280;26021;45.640;11.302;2023-02-28T00:57:40;99298.50;;;3.81;67.61
40315;BME280;26021;45.640;11.302;2023-02-28T01:00:07;99298.84;;;3.88;66.58
40315;BME280;26021;45.640;11.302;2023-02-28T01:02:33;99294.19;;;3.58;66.49
40315;BME280;26021;45.640;11.302;2023-02-28T01:04:58;99276.53;;;3.47;67.89
40315;BME280;26021;45.640;11.302;2023-02-28T01:07:24;99293.94;;;3.61;66.93
40315;BME280;26021;45.640;11.302;2023-02-28T01:09:49;99299.69;;;3.66;67.13
40315;BME280;26021;45.640;11.302;2023-02-28T01:12:15;99268.81;;;3.56;67.99
40315;BME280;26021;45.640;11.302;2023-02-28T01:14:40;99300.78;;;3.86;67.24
40315;BME280;26021;45.640;11.302;2023-02-28T01:17:06;99306.19;;;3.85;67.21
40315;BME280;26021;45.640;11.302;2023-02-28T01:19:32;99294.44;;;3.77;67.27
40315;BME280;26021;45.640;11.302;2023-02-28T01:22:02;99302.50;;;3.76;67.18
40315;BME280;26021;45.640;11.302;2023-02-28T01:24:38;99307.19;;;3.72;67.42
40315;BME280;26021;45.640;11.302;2023-02-28T01:27:03;99307.16;;;3.61;67.29
40315;BME280;26021;45.640;11.302;2023-02-28T01:29:29;99313.06;;;3.54;68.04
40315;BME280;26021;45.640;11.302;2023-02-28T01:31:54;99301.06;;;3.38;69.34
40315;BME280;26021;45.640;11.302;2023-02-28T01:34:20;99230.78;;;3.13;69.68
40315;BME280;26021;45.640;11.302;2023-02-28T01:36:45;99309.00;;;3.72;67.85
40315;BME280;26021;45.640;11.302;2023-02-28T01:39:11;99221.75;;;3.27;67.91
40315;BME280;26021;45.640;11.302;2023-02-28T01:41:37;99317.63;;;3.85;67.85
40315;BME280;26021;45.640;11.302;2023-02-28T01:44:55;99316.19;;;3.81;68.02
40315;BME280;26021;45.640;11.302;2023-02-28T01:46:53;99310.06;;;3.80;66.44
40315;BME280;26021;45.640;11.302;2023-02-28T01:49:18;99310.06;;;3.80;67.20
40315;BME280;26021;45.640;11.302;2023-02-28T01:51:54;99319.78;;;3.69;66.99
40315;BME280;26021;45.640;11.302;2023-02-28T01:54:26;99322.78;;;3.64;67.19
40315;BME280;26021;45.640;11.302;2023-02-28T01:57:19;99286.75;;;3.52;66.12
40315;BME280;26021;45.640;11.302;2023-02-28T02:00:03;99274.38;;;3.30;67.29
40315;BME280;26021;45.640;11.302;2023-02-28T02:02:30;99256.94;;;3.28;67.42
40315;BME280;26021;45.640;11.302;2023-02-28T02:05:10;99322.22;;;3.72;67.12
40315;BME280;26021;45.640;11.302;2023-02-28T02:07:39;99257.78;;;3.28;67.08
40315;BME280;26021;45.640;11.302;2023-02-28T02:10:19;99300.56;;;3.56;67.09
40315;BME280;26021;45.640;11.302;2023-02-28T02:15:38;99301.66;;;3.53;67.12
40315;BME280;26021;45.640;11.302;2023-02-28T02:21:55;99317.97;;;3.69;66.99
40315;BME280;26021;45.640;11.302;2023-02-28T02:36:49;99323.88;;;3.62;67.17
40315;BME280;26021;45.640;11.302;2023-02-28T02:42:12;99233.78;;;3.09;66.24
40315;BME280;26021;45.640;11.302;2023-02-28T02:44:43;99301.16;;;3.48;66.49
40315;BME280;26021;45.640;11.302;2023-02-28T02:47:14;99328.69;;;3.57;67.47
40315;BME280;26021;45.640;11.302;2023-02-28T02:49:46;99302.50;;;3.54;66.79
40315;BME280;26021;45.640;11.302;2023-02-28T02:52:18;99316.31;;;3.57;67.12
40315;BME280;26021;45.640;11.302;2023-02-28T02:54:48;99316.31;;;3.57;66.90
40315;BME280;26021;45.640;11.302;2023-02-28T02:57:21;99317.75;;;3.61;67.27
40315;BME280;26021;45.640;11.302;2023-02-28T02:59:49;99320.38;;;3.61;67.32
40315;BME280;26021;45.640;11.302;2023-02-28T03:02:17;99312.09;;;3.66;66.86
40315;BME280;26021;45.640;11.302;2023-02-28T03:04:51;99315.34;;;3.58;66.74
40315;BME280;26021;45.640;11.302;2023-02-28T03:07:17;99318.72;;;3.49;67.28
40315;BME280;26021;45.640;11.302;2023-02-28T03:09:53;99307.78;;;3.42;68.34
40315;BME280;26021;45.640;11.302;2023-02-28T03:12:20;99302.84;;;3.49;68.00
40315;BME280;26021;45.640;11.302;2023-02-28T03:15:11;99308.25;;;3.59;67.59
40315;BME280;26021;45.640;11.302;2023-02-28T03:20:21;99189.78;;;2.85;67.31
40315;BME280;26021;45.640;11.302;2023-02-28T03:23:56;99306.47;;;3.48;68.01
40315;BME280;26021;45.640;11.302;2023-02-28T03:26:19;99308.97;;;3.49;67.82
40315;BME280;26021;45.640;11.302;2023-02-28T03:29:15;99303.31;;;3.65;67.42
40315;BME280;26021;45.640;11.302;2023-02-28T03:31:54;99210.84;;;2.98;66.82
40315;BME280;26021;45.640;11.302;2023-02-28T03:34:32;99291.78;;;3.44;67.47
40315;BME280;26021;45.640;11.302;2023-02-28T03:37:03;99206.72;;;2.94;68.09
40315;BME280;26021;45.640;11.302;2023-02-28T03:39:45;99228.59;;;3.07;68.19
40315;BME280;26021;45.640;11.302;2023-02-28T03:42:18;99298.28;;;3.51;67.90
40315;BME280;26021;45.640;11.302;2023-02-28T03:44:57;99275.09;;;3.43;67.41
40315;BME280;26021;45.640;11.302;2023-02-28T03:47:35;99294.19;;;3.47;67.32
40315;BME280;26021;45.640;11.302;2023-02-28T03:50:10;99249.88;;;3.17;67.12
40315;BME280;26021;45.640;11.302;2023-02-28T03:52:42;99293.34;;;3.35;68.15
40315;BME280;26021;45.640;11.302;2023-02-28T03:55:12;99284.81;;;3.32;68.07
40315;BME280;26021;45.640;11.302;2023-02-28T03:58:04;99293.34;;;3.35;68.25
40315;BME280;26021;45.640;11.302;2023-02-28T04:00:37;99291.06;;;3.42;68.15
40315;BME280;26021;45.640;11.302;2023-02-28T04:03:04;99293.84;;;3.51;67.35
40315;BME280;26021;45.640;11.302;2023-02-28T04:05:31;99278.31;;;3.47;67.43
40315;BME280;26021;45.640;11.302;2023-02-28T04:08:05;99278.34;;;3.36;67.85
40315;BME280;26021;45.640;11.302;2023-02-28T04:10:31;99140.19;;;2.55;67.95
40315;BME280;26021;45.640;11.302;2023-02-28T04:12:56;99291.06;;;3.53;67.24
40315;BME280;26021;45.640;11.302;2023-02-28T04:15:21;99287.34;;;3.44;67.87
40315;BME280;26021;45.640;11.302;2023-02-28T04:17:48;99288.31;;;3.43;67.53
40315;BME280;26021;45.640;11.302;2023-02-28T04:20:13;99283.97;;;3.42;67.79
40315;BME280;26021;45.640;11.302;2023-02-28T04:22:39;99283.97;;;3.54;67.24
40315;BME280;26021;45.640;11.302;2023-02-28T04:25:04;99295.28;;;3.33;68.76
40315;BME280;26021;45.640;11.302;2023-02-28T04:27:30;99293.47;;;3.45;68.78
40315;BME280;26021;45.640;11.302;2023-02-28T04:29:56;99295.41;;;3.32;69.37
40315;BME280;26021;45.640;11.302;2023-02-28T04:32:21;99299.38;;;3.37;69.14
40315;BME280;26021;45.640;11.302;2023-02-28T04:34:46;99295.16;;;3.46;69.01
40315;BME280;26021;45.640;11.302;2023-02-28T04:37:12;99290.22;;;3.41;69.10
40315;BME280;26021;45.640;11.302;2023-02-28T04:39:38;99296.00;;;3.35;69.58
40315;BME280;26021;45.640;11.302;2023-02-28T04:42:04;99295.41;;;3.43;69.93
40315;BME280;26021;45.640;11.302;2023-02-28T04:44:29;99293.00;;;3.51;67.95
40315;BME280;26021;45.640;11.302;2023-02-28T04:46:54;99295.03;;;3.36;68.56
40315;BME280;26021;45.640;11.302;2023-02-28T04:49:20;99253.59;;;3.14;69.37
40315;BME280;26021;45.640;11.302;2023-02-28T04:51:45;99293.84;;;3.40;70.07
40315;BME280;26021;45.640;11.302;2023-02-28T04:54:11;99291.31;;;3.39;72.08
40315;BME280;26021;45.640;11.302;2023-02-28T04:56:36;99284.47;;;3.14;74.79
40315;BME280;26021;45.640;11.302;2023-02-28T04:59:02;99294.78;;;3.06;77.08
40315;BME280;26021;45.640;11.302;2023-02-28T05:01:32;99300.75;;;2.97;78.29
40315;BME280;26021;45.640;11.302;2023-02-28T05:04:00;99302.88;;;2.80;79.51
40315;BME280;26021;45.640;11.302;2023-02-28T05:06:28;99311.28;;;2.74;81.00
40315;BME280;26021;45.640;11.302;2023-02-28T05:08:54;99246.03;;;2.52;81.73
40315;BME280;26021;45.640;11.302;2023-02-28T05:11:28;99295.66;;;2.71;82.97
40315;BME280;26021;45.640;11.302;2023-02-28T05:14:03;99308.53;;;2.87;84.02
40315;BME280;26021;45.640;11.302;2023-02-28T05:16:29;99301.66;;;2.73;84.70
40315;BME280;26021;45.640;11.302;2023-02-28T05:18:55;99301.41;;;2.65;85.87
40315;BME280;26021;45.640;11.302;2023-02-28T05:21:26;99252.88;;;2.44;84.05
40315;BME280;26021;45.640;11.302;2023-02-28T05:23:52;99305.53;;;2.80;84.83
40315;BME280;26021;45.640;11.302;2023-02-28T05:26:18;99302.19;;;2.90;85.35
40315;BME280;26021;45.640;11.302;2023-02-28T05:28:44;99298.44;;;2.81;86.11
40315;BME280;26021;45.640;11.302;2023-02-28T05:31:12;99299.16;;;2.72;86.53
40315;BME280;26021;45.640;11.302;2023-02-28T05:33:38;99231.88;;;2.18;88.49
40315;BME280;26021;45.640;11.302;2023-02-28T05:36:04;99305.44;;;2.47;90.10
40315;BME280;26021;45.640;11.302;2023-02-28T05:38:29;99300.56;;;2.65;88.66
40315;BME280;26021;45.640;11.302;2023-02-28T05:40:55;99308.22;;;2.57;88.86
40315;BME280;26021;45.640;11.302;2023-02-28T05:43:21;99311.53;;;2.36;91.61
40315;BME280;26021;45.640;11.302;2023-02-28T05:45:46;99310.38;;;2.51;91.64
40315;BME280;26021;45.640;11.302;2023-02-28T05:48:12;99316.34;;;2.42;91.34
40315;BME280;26021;45.640;11.302;2023-02-28T05:50:37;99306.16;;;2.49;91.09
40315;BME280;26021;45.640;11.302;2023-02-28T05:53:03;99316.78;;;2.36;91.72
40315;BME280;26021;45.640;11.302;2023-02-28T05:55:28;99310.56;;;2.37;92.56
40315;BME280;26021;45.640;11.302;2023-02-28T05:57:54;99316.53;;;2.28;94.00
40315;BME280;26021;45.640;11.302;2023-02-28T06:00:21;99303.16;;;2.42;92.49
40315;BME280;26021;45.640;11.302;2023-02-28T06:02:46;99316.69;;;2.38;92.78
40315;BME280;26021;45.640;11.302;2023-02-28T06:05:17;99298.56;;;2.33;92.58
40315;BME280;26021;45.640;11.302;2023-02-28T06:07:43;99315.34;;;2.32;93.24
40315;BME280;26021;45.640;11.302;2023-02-28T06:10:10;99146.06;;;1.19;94.96
40315;BME280;26021;45.640;11.302;2023-02-28T06:12:36;99313.69;;;2.42;94.34
40315;BME280;26021;45.640;11.302;2023-02-28T06:15:02;99268.97;;;1.93;95.57
40315;BME280;26021;45.640;11.302;2023-02-28T06:17:27;99315.13;;;2.35;95.17
40315;BME280;26021;45.640;11.302;2023-02-28T06:19:52;99320.44;;;2.22;97.75
40315;BME280;26021;45.640;11.302;2023-02-28T06:22:18;99321.34;;;2.34;95.93
40315;BME280;26021;45.640;11.302;2023-02-28T06:24:43;99327.41;;;2.47;93.37
40315;BME280;26021;45.640;11.302;2023-02-28T06:27:08;99317.94;;;2.56;92.76
40315;BME280;26021;45.640;11.302;2023-02-28T06:29:35;99330.34;;;2.32;94.10
40315;BME280;26021;45.640;11.302;2023-02-28T06:32:01;99336.72;;;2.40;93.69
40315;BME280;26021;45.640;11.302;2023-02-28T06:34:26;99327.94;;;2.16;95.90
40315;BME280;26021;45.640;11.302;2023-02-28T06:36:52;99309.84;;;2.35;95.31
40315;BME280;26021;45.640;11.302;2023-02-28T06:39:18;99311.75;;;2.33;93.02
40315;BME280;26021;45.640;11.302;2023-02-28T06:41:43;99321.31;;;2.58;90.82
40315;BME280;26021;45.640;11.302;2023-02-28T06:44:15;99331.53;;;2.63;90.90
40315;BME280;26021;45.640;11.302;2023-02-28T06:46:42;99335.16;;;2.38;93.92
40315;BME280;26021;45.640;11.302;2023-02-28T06:49:08;99345.50;;;2.41;93.16
40315;BME280;26021;45.640;11.302;2023-02-28T06:51:36;99322.50;;;2.54;93.76
40315;BME280;26021;45.640;11.302;2023-02-28T06:54:01;99336.16;;;2.83;93.42
40315;BME280;26021;45.640;11.302;2023-02-28T06:56:27;99345.03;;;3.17;87.75
40315;BME280;26021;45.640;11.302;2023-02-28T06:58:52;99302.47;;;2.98;85.92
40315;BME280;26021;45.640;11.302;2023-02-28T07:01:18;99337.81;;;3.53;84.12
40315;BME280;26021;45.640;11.302;2023-02-28T07:03:44;99345.91;;;3.73;82.08
40315;BME280;26021;45.640;11.302;2023-02-28T07:06:10;99250.34;;;3.33;81.59
40315;BME280;26021;45.640;11.302;2023-02-28T07:08:35;99346.63;;;3.75;83.37
40315;BME280;26021;45.640;11.302;2023-02-28T07:11:01;99344.81;;;3.42;86.10
40315;BME280;26021;45.640;11.302;2023-02-28T07:13:27;99350.91;;;3.21;88.22
40315;BME280;26021;45.640;11.302;2023-02-28T07:15:59;99352.25;;;3.60;86.30
40315;BME280;26021;45.640;11.302;2023-02-28T07:18:25;99346.50;;;3.77;83.59
40315;BME280;26021;45.640;11.302;2023-02-28T07:20:51;99285.19;;;3.49;82.50
40315;BME280;26021;45.640;11.302;2023-02-28T07:23:17;99282.38;;;3.85;81.90
40315;BME280;26021;45.640;11.302;2023-02-28T07:25:42;99348.59;;;4.60;79.34
40315;BME280;26021;45.640;11.302;2023-02-28T07:28:09;99349.81;;;4.44;78.25
40315;BME280;26021;45.640;11.302;2023-02-28T07:30:34;99348.81;;;4.68;76.81
40315;BME280;26021;45.640;11.302;2023-02-28T07:32:59;99352.81;;;5.04;76.67
40315;BME280;26021;45.640;11.302;2023-02-28T07:35:25;99345.38;;;5.19;75.69
40315;BME280;26021;45.640;11.302;2023-02-28T07:37:50;99347.66;;;5.23;72.40
40315;BME280;26021;45.640;11.302;2023-02-28T07:40:16;99282.09;;;4.84;70.28
40315;BME280;26021;45.640;11.302;2023-02-28T07:42:43;99337.63;;;5.06;69.88
40315;BME280;26021;45.640;11.302;2023-02-28T07:45:09;99342.41;;;4.91;69.17
40315;BME280;26021;45.640;11.302;2023-02-28T07:47:37;99349.22;;;5.56;67.83
40315;BME280;26021;45.640;11.302;2023-02-28T07:50:05;99280.34;;;4.94;68.71
40315;BME280;26021;45.640;11.302;2023-02-28T07:52:30;99342.16;;;5.36;65.60
40315;BME280;26021;45.640;11.302;2023-02-28T07:54:58;99342.72;;;4.77;68.49
40315;BME280;26021;45.640;11.302;2023-02-28T07:57:23;99349.84;;;4.97;68.05
40315;BME280;26021;45.640;11.302;2023-02-28T07:59:49;99350.75;;;5.07;64.96
40315;BME280;26021;45.640;11.302;2023-02-28T08:02:16;99349.78;;;5.29;64.73
40315;BME280;26021;45.640;11.302;2023-02-28T08:04:43;99342.06;;;5.47;62.50
40315;BME280;26021;45.640;11.302;2023-02-28T08:07:09;99346.06;;;5.72;61.31
40315;BME280;26021;45.640;11.302;2023-02-28T08:09:39;99341.50;;;5.84;61.66
40315;BME280;26021;45.640;11.302;2023-02-28T08:12:07;99340.03;;;5.91;61.26
40315;BME280;26021;45.640;11.302;2023-02-28T08:14:33;99345.28;;;6.21;60.48
40315;BME280;26021;45.640;11.302;2023-02-28T08:16:59;99346.72;;;6.35;58.93
40315;BME280;26021;45.640;11.302;2023-02-28T08:19:25;99349.78;;;6.30;59.25
40315;BME280;26021;45.640;11.302;2023-02-28T08:21:50;99352.31;;;6.32;58.79
40315;BME280;26021;45.640;11.302;2023-02-28T08:24:15;99349.34;;;6.25;58.46
40315;BME280;26021;45.640;11.302;2023-02-28T08:26:41;99333.41;;;6.25;58.35
40315;BME280;26021;45.640;11.302;2023-02-28T08:29:06;99311.19;;;6.36;57.29
40315;BME280;26021;45.640;11.302;2023-02-28T08:31:32;99354.00;;;6.43;57.54
40315;BME280;26021;45.640;11.302;2023-02-28T08:33:57;99352.28;;;6.22;57.51
40315;BME280;26021;45.640;11.302;2023-02-28T08:36:25;99305.59;;;6.10;58.08
40315;BME280;26021;45.640;11.302;2023-02-28T08:38:51;99298.59;;;6.19;56.34
40315;BME280;26021;45.640;11.302;2023-02-28T08:41:16;99349.97;;;6.87;56.61
40315;BME280;26021;45.640;11.302;2023-02-28T08:43:42;99325.91;;;6.69;55.38
40315;BME280;26021;45.640;11.302;2023-02-28T08:46:11;99332.06;;;6.79;54.68
40315;BME280;26021;45.640;11.302;2023-02-28T08:48:37;99353.16;;;6.61;55.89
40315;BME280;26021;45.640;11.302;2023-02-28T08:51:07;99353.19;;;6.81;54.66
40315;BME280;26021;45.640;11.302;2023-02-28T08:53:37;99346.88;;;6.91;54.53
40315;BME280;26021;45.640;11.302;2023-02-28T08:56:06;99357.97;;;6.77;56.33
40315;BME280;26021;45.640;11.302;2023-02-28T08:58:32;99356.13;;;6.78;54.44
40315;BME280;26021;45.640;11.302;2023-02-28T09:00:59;99347.88;;;6.90;56.29
40315;BME280;26021;45.640;11.302;2023-02-28T09:03:24;99344.03;;;7.22;55.73
40315;BME280;26021;45.640;11.302;2023-02-28T09:05:54;99341.81;;;7.17;56.62
40315;BME280;26021;45.640;11.302;2023-02-28T09:08:19;99327.78;;;7.25;54.73
40315;BME280;26021;45.640;11.302;2023-02-28T09:10:45;99342.09;;;7.14;53.63
40315;BME280;26021;45.640;11.302;2023-02-28T09:13:10;99348.53;;;7.21;53.43
40315;BME280;26021;45.640;11.302;2023-02-28T09:15:37;99359.75;;;6.67;54.05
40315;BME280;26021;45.640;11.302;2023-02-28T09:18:03;99359.72;;;6.28;54.56
40315;BME280;26021;45.640;11.302;2023-02-28T09:20:28;99357.06;;;6.48;54.41
40315;BME280;26021;45.640;11.302;2023-02-28T09:22:53;99352.06;;;6.83;54.53
40315;BME280;26021;45.640;11.302;2023-02-28T09:25:19;99349.84;;;6.79;52.11
40315;BME280;26021;45.640;11.302;2023-02-28T09:27:44;99355.53;;;6.35;52.47
40315;BME280;26021;45.640;11.302;2023-02-28T09:30:11;99259.53;;;5.90;53.52
40315;BME280;26021;45.640;11.302;2023-02-28T09:32:36;99364.13;;;6.78;51.59
40315;BME280;26021;45.640;11.302;2023-02-28T09:35:02;99360.16;;;6.43;52.90
40315;BME280;26021;45.640;11.302;2023-02-28T09:37:29;99338.19;;;6.60;51.48
40315;BME280;26021;45.640;11.302;2023-02-28T09:39:55;99354.16;;;6.51;54.16
40315;BME280;26021;45.640;11.302;2023-02-28T09:42:26;99358.66;;;6.79;52.80
40315;BME280;26021;45.640;11.302;2023-02-28T09:44:53;99339.47;;;6.95;54.01
40315;BME280;26021;45.640;11.302;2023-02-28T09:47:27;99356.81;;;7.09;51.89
40315;BME280;26021;45.640;11.302;2023-02-28T09:49:56;99356.53;;;6.92;51.41
40315;BME280;26021;45.640;11.302;2023-02-28T09:52:28;99352.91;;;6.93;52.09
40315;BME280;26021;45.640;11.302;2023-02-28T09:54:55;99361.16;;;6.81;51.21
40315;BME280;26021;45.640;11.302;2023-02-28T09:57:36;99343.81;;;6.86;51.71
40315;BME280;26021;45.640;11.302;2023-02-28T10:00:13;99353.09;;;7.39;52.75
40315;BME280;26021;45.640;11.302;2023-02-28T10:05:28;99347.16;;;7.64;52.75
40315;BME280;26021;45.640;11.302;2023-02-28T10:08:13;99349.81;;;7.64;52.22
40315;BME280;26021;45.640;11.302;2023-02-28T10:10:44;99352.84;;;7.22;52.57
40315;BME280;26021;45.640;11.302;2023-02-28T10:13:17;99342.63;;;7.27;54.62
40315;BME280;26021;45.640;11.302;2023-02-28T10:15:47;99341.06;;;7.34;54.27
40315;BME280;26021;45.640;11.302;2023-02-28T10:18:21;99345.84;;;7.21;54.66
40315;BME280;26021;45.640;11.302;2023-02-28T10:20:48;99334.22;;;7.22;54.81
40315;BME280;26021;45.640;11.302;2023-02-28T10:23:25;99345.84;;;7.31;54.38
40315;BME280;26021;45.640;11.302;2023-02-28T10:25:58;99326.00;;;7.16;54.99
40315;BME280;26021;45.640;11.302;2023-02-28T10:28:25;99341.22;;;7.33;55.71
40315;BME280;26021;45.640;11.302;2023-02-28T10:30:53;99262.63;;;7.01;54.74
40315;BME280;26021;45.640;11.302;2023-02-28T10:33:27;99342.81;;;7.63;54.67
40315;BME280;26021;45.640;11.302;2023-02-28T10:35:53;99340.41;;;7.70;54.83
40315;BME280;26021;45.640;11.302;2023-02-28T10:38:27;99344.94;;;7.59;54.99
40315;BME280;26021;45.640;11.302;2023-02-28T10:41:06;99339.50;;;7.51;54.79
40315;BME280;26021;45.640;11.302;2023-02-28T10:43:33;99340.47;;;7.41;55.66
40315;BME280;26021;45.640;11.302;2023-02-28T10:46:02;99347.41;;;7.14;55.80
40315;BME280;26021;45.640;11.302;2023-02-28T10:48:32;99338.25;;;7.46;56.01
40315;BME280;26021;45.640;11.302;2023-02-28T10:50:58;99316.63;;;7.58;55.32
40315;BME280;26021;45.640;11.302;2023-02-28T10:56:17;99339.09;;;7.83;55.13
40315;BME280;26021;45.640;11.302;2023-02-28T11:07:00;99327.03;;;8.07;53.75
40315;BME280;26021;45.640;11.302;2023-02-28T11:09:52;99323.91;;;8.21;53.86
40315;BME280;26021;45.640;11.302;2023-02-28T11:12:38;99249.44;;;7.74;52.80
40315;BME280;26021;45.640;11.302;2023-02-28T11:15:23;99304.34;;;8.03;53.22
40315;BME280;26021;45.640;11.302;2023-02-28T11:20:25;99316.41;;;8.34;55.02
40315;BME280;26021;45.640;11.302;2023-02-28T11:22:53;99301.19;;;8.44;53.09
40315;BME280;26021;45.640;11.302;2023-02-28T11:28:02;99307.88;;;8.48;52.93
40315;BME280;26021;45.640;11.302;2023-02-28T11:30:38;99296.75;;;8.71;52.39
40315;BME280;26021;45.640;11.302;2023-02-28T11:33:23;99297.06;;;8.68;52.09
40315;BME280;26021;45.640;11.302;2023-02-28T11:35:50;99293.28;;;7.80;51.95
40315;BME280;26021;45.640;11.302;2023-02-28T11:38:16;99298.09;;;7.67;53.04
40315;BME280;26021;45.640;11.302;2023-02-28T11:46:20;99271.78;;;8.09;53.08
40315;BME280;26021;45.640;11.302;2023-02-28T11:49:01;99216.03;;;7.62;52.71
40315;BME280;26021;45.640;11.302;2023-02-28T11:51:47;99256.59;;;8.19;53.50
40315;BME280;26021;45.640;11.302;2023-02-28T11:54:31;99259.03;;;8.30;52.86
40315;BME280;26021;45.640;11.302;2023-02-28T11:57:15;99258.19;;;8.29;52.90
40315;BME280;26021;45.640;11.302;2023-02-28T12:02:35;99257.13;;;7.77;52.93
40315;BME280;26021;45.640;11.302;2023-02-28T12:05:26;99247.63;;;7.92;53.72
40315;BME280;26021;45.640;11.302;2023-02-28T12:07:59;99239.88;;;8.17;53.66
40315;BME280;26021;45.640;11.302;2023-02-28T12:10:27;99241.00;;;8.59;53.07
40315;BME280;26021;45.640;11.302;2023-02-28T12:18:32;99229.88;;;8.64;51.42
40315;BME280;26021;45.640;11.302;2023-02-28T12:21:18;99228.25;;;8.71;52.32
40315;BME280;26021;45.640;11.302;2023-02-28T12:29:17;99212.47;;;9.38;52.48
40315;BME280;26021;45.640;11.302;2023-02-28T12:31:54;99220.53;;;9.46;50.65
40315;BME280;26021;45.640;11.302;2023-02-28T12:34:26;99176.53;;;8.64;50.78
40315;BME280;26021;45.640;11.302;2023-02-28T12:36:55;99161.66;;;8.87;52.50
40315;BME280;26021;45.640;11.302;2023-02-28T12:39:27;99199.41;;;9.27;50.93
40315;BME280;26021;45.640;11.302;2023-02-28T12:41:59;99186.09;;;9.77;49.96
40315;BME280;26021;45.640;11.302;2023-02-28T12:44:35;99184.59;;;9.74;48.91
40315;BME280;26021;45.640;11.302;2023-02-28T12:47:05;99186.59;;;9.72;50.30
40315;BME280;26021;45.640;11.302;2023-02-28T12:49:39;99180.47;;;10.12;48.99
40315;BME280;26021;45.640;11.302;2023-02-28T12:52:07;99179.66;;;10.36;48.31
40315;BME280;26021;45.640;11.302;2023-02-28T12:54:56;99179.69;;;10.44;47.62
40315;BME280;26021;45.640;11.302;2023-02-28T12:57:33;99177.16;;;10.27;48.46
40315;BME280;26021;45.640;11.302;2023-02-28T13:00:13;99166.50;;;10.43;47.93
40315;BME280;26021;45.640;11.302;2023-02-28T13:02:57;99172.81;;;10.74;47.87
40315;BME280;26021;45.640;11.302;2023-02-28T13:08:39;99165.09;;;10.79;47.41
40315;BME280;26021;45.640;11.302;2023-02-28T13:11:42;99166.50;;;10.43;47.96
40315;BME280;26021;45.640;11.302;2023-02-28T13:16:59;99163.56;;;9.87;48.02
40315;BME280;26021;45.640;11.302;2023-02-28T13:19:29;99168.31;;;9.60;49.57
40315;BME280;26021;45.640;11.302;2023-02-28T13:21:56;99150.38;;;9.94;49.81
40315;BME280;26021;45.640;11.302;2023-02-28T13:29:35;99145.38;;;10.15;49.98
40315;BME280;26021;45.640;11.302;2023-02-28T13:39:54;99138.53;;;9.88;49.46
40315;BME280;26021;45.640;11.302;2023-02-28T13:42:24;99130.66;;;9.71;49.98
40315;BME280;26021;45.640;11.302;2023-02-28T13:47:51;99142.00;;;9.73;51.04
40315;BME280;26021;45.640;11.302;2023-02-28T14:06:50;99125.34;;;9.79;50.69
40315;BME280;26021;45.640;11.302;2023-02-28T14:09:29;99132.41;;;10.21;50.16
40315;BME280;26021;45.640;11.302;2023-02-28T14:11:56;99120.69;;;10.22;50.38
40315;BME280;26021;45.640;11.302;2023-02-28T14:17:03;99121.66;;;9.80;51.40
40315;BME280;26021;45.640;11.302;2023-02-28T14:19:31;99126.00;;;9.97;51.17
40315;BME280;26021;45.640;11.302;2023-02-28T14:22:22;99118.31;;;9.70;50.59
40315;BME280;26021;45.640;11.302;2023-02-28T14:25:21;99124.56;;;9.44;51.01
40315;BME280;26021;45.640;11.302;2023-02-28T14:28:18;99098.88;;;9.51;51.44
40315;BME280;26021;45.640;11.302;2023-02-28T14:30:52;99121.06;;;9.44;50.76
40315;BME280;26021;45.640;11.302;2023-02-28T14:36:21;99121.38;;;9.41;51.35
40315;BME280;26021;45.640;11.302;2023-02-28T14:39:01;99119.53;;;9.33;51.90
40315;BME280;26021;45.640;11.302;2023-02-28T14:41:32;99052.13;;;9.23;50.98
40315;BME280;26021;45.640;11.302;2023-02-28T14:44:03;99119.56;;;9.41;51.01
40315;BME280;26021;45.640;11.302;2023-02-28T14:46:39;99117.47;;;9.11;52.08
40315;BME280;26021;45.640;11.302;2023-02-28T14:49:06;99110.81;;;9.15;51.99
40315;BME280;26021;45.640;11.302;2023-02-28T14:51:33;99109.81;;;9.24;52.00
40315;BME280;26021;45.640;11.302;2023-02-28T14:54:01;99112.75;;;9.05;52.36
40315;BME280;26021;45.640;11.302;2023-02-28T14:56:37;99030.38;;;8.59;52.79
40315;BME280;26021;45.640;11.302;2023-02-28T14:59:04;99091.63;;;9.19;52.24
40315;BME280;26021;45.640;11.302;2023-02-28T15:01:30;99102.75;;;9.07;52.39